sensor_id;sensor_type;location;lat;lon;timestamp;temperature;humidity
56478;DHT22;42382;53.210;5.772;2023-07-13T00:00:35;18.00;77.20
56478;DHT22;42382;53.210;5.772;2023-07-13T00:03:02;17.90;77.20
56478;DHT22;42382;53.210;5.772;2023-07-13T00:05:28;17.90;77.30
56478;DHT22;42382;53.210;5.772;2023-07-13T00:07:57;17.90;77.20
56478;DHT22;42382;53.210;5.772;2023-07-13T00:10:23;17.90;77.10
56478;DHT22;42382;53.210;5.772;2023-07-13T00:12:49;17.90;76.90
56478;DHT22;42382;53.210;5.772;2023-07-13T00:15:20;17.90;76.80
56478;DHT22;42382;53.210;5.772;2023-07-13T00:17:57;17.90;76.80
56478;DHT22;42382;53.210;5.772;2023-07-13T00:20:24;17.90;76.40
56478;DHT22;42382;53.210;5.772;2023-07-13T00:22:51;17.90;76.30
56478;DHT22;42382;53.210;5.772;2023-07-13T00:25:20;17.90;76.20
56478;DHT22;42382;53.210;5.772;2023-07-13T00:27:47;17.90;76.10
56478;DHT22;42382;53.210;5.772;2023-07-13T00:30:16;17.90;76.10
56478;DHT22;42382;53.210;5.772;2023-07-13T00:32:42;17.90;76.10
56478;DHT22;42382;53.210;5.772;2023-07-13T00:35:08;17.90;76.00
56478;DHT22;42382;53.210;5.772;2023-07-13T00:37:34;17.90;75.90
56478;DHT22;42382;53.210;5.772;2023-07-13T00:40:06;17.80;76.20
56478;DHT22;42382;53.210;5.772;2023-07-13T00:42:32;17.80;76.10
56478;DHT22;42382;53.210;5.772;2023-07-13T00:47:52;17.70;76.00
56478;DHT22;42382;53.210;5.772;2023-07-13T00:50:20;17.70;76.20
56478;DHT22;42382;53.210;5.772;2023-07-13T00:52:52;17.60;76.20
56478;DHT22;42382;53.210;5.772;2023-07-13T00:55:20;17.60;76.30
56478;DHT22;42382;53.210;5.772;2023-07-13T00:57:46;17.60;76.30
56478;DHT22;42382;53.210;5.772;2023-07-13T01:00:12;17.50;76.30
56478;DHT22;42382;53.210;5.772;2023-07-13T01:02:52;17.40;76.30
56478;DHT22;42382;53.210;5.772;2023-07-13T01:05:21;17.40;76.20
56478;DHT22;42382;53.210;5.772;2023-07-13T01:07:50;17.40;76.10
56478;DHT22;42382;53.210;5.772;2023-07-13T01:10:21;17.40;76.20
56478;DHT22;42382;53.210;5.772;2023-07-13T01:12:46;17.40;76.20
56478;DHT22;42382;53.210;5.772;2023-07-13T01:18:05;17.40;75.90
56478;DHT22;42382;53.210;5.772;2023-07-13T01:20:31;17.40;76.00
56478;DHT22;42382;53.210;5.772;2023-07-13T01:23:05;17.40;76.00
56478;DHT22;42382;53.210;5.772;2023-07-13T01:25:32;17.40;76.10
56478;DHT22;42382;53.210;5.772;2023-07-13T01:27:57;17.30;76.20
56478;DHT22;42382;53.210;5.772;2023-07-13T01:30:23;17.30;76.40
56478;DHT22;42382;53.210;5.772;2023-07-13T01:32:49;17.20;76.70
56478;DHT22;42382;53.210;5.772;2023-07-13T01:35:15;17.20;77.40
56478;DHT22;42382;53.210;5.772;2023-07-13T01:37:42;17.20;77.40
56478;DHT22;42382;53.210;5.772;2023-07-13T01:40:11;17.20;77.60
56478;DHT22;42382;53.210;5.772;2023-07-13T01:42:38;17.30;77.70
56478;DHT22;42382;53.210;5.772;2023-07-13T01:45:04;17.30;77.70
56478;DHT22;42382;53.210;5.772;2023-07-13T01:47:30;17.30;77.70
56478;DHT22;42382;53.210;5.772;2023-07-13T01:49:57;17.30;77.90
56478;DHT22;42382;53.210;5.772;2023-07-13T01:52:23;17.40;77.80
56478;DHT22;42382;53.210;5.772;2023-07-13T01:54:49;17.40;77.80
56478;DHT22;42382;53.210;5.772;2023-07-13T01:57:15;17.30;78.20
56478;DHT22;42382;53.210;5.772;2023-07-13T01:59:40;17.30;78.10
56478;DHT22;42382;53.210;5.772;2023-07-13T02:02:06;17.30;78.00
56478;DHT22;42382;53.210;5.772;2023-07-13T02:04:32;17.30;78.20
56478;DHT22;42382;53.210;5.772;2023-07-13T02:06:58;17.20;78.50
56478;DHT22;42382;53.210;5.772;2023-07-13T02:09:24;17.20;78.70
56478;DHT22;42382;53.210;5.772;2023-07-13T02:11:49;17.20;78.50
56478;DHT22;42382;53.210;5.772;2023-07-13T02:14:15;17.20;79.00
56478;DHT22;42382;53.210;5.772;2023-07-13T02:16:41;17.10;78.90
56478;DHT22;42382;53.210;5.772;2023-07-13T02:19:07;17.20;79.00
56478;DHT22;42382;53.210;5.772;2023-07-13T02:21:34;17.10;79.10
56478;DHT22;42382;53.210;5.772;2023-07-13T02:24:00;17.10;79.20
56478;DHT22;42382;53.210;5.772;2023-07-13T02:26:26;17.10;79.40
56478;DHT22;42382;53.210;5.772;2023-07-13T02:28:52;17.10;79.60
56478;DHT22;42382;53.210;5.772;2023-07-13T02:31:18;17.20;79.70
56478;DHT22;42382;53.210;5.772;2023-07-13T02:33:44;17.30;80.10
56478;DHT22;42382;53.210;5.772;2023-07-13T02:36:11;17.20;80.00
56478;DHT22;42382;53.210;5.772;2023-07-13T02:38:37;17.20;80.00
56478;DHT22;42382;53.210;5.772;2023-07-13T02:41:06;17.20;80.40
56478;DHT22;42382;53.210;5.772;2023-07-13T02:43:33;17.20;80.50
56478;DHT22;42382;53.210;5.772;2023-07-13T02:45:59;17.20;80.60
56478;DHT22;42382;53.210;5.772;2023-07-13T02:48:30;17.20;80.70
56478;DHT22;42382;53.210;5.772;2023-07-13T02:50:55;17.10;81.10
56478;DHT22;42382;53.210;5.772;2023-07-13T02:53:21;17.10;81.40
56478;DHT22;42382;53.210;5.772;2023-07-13T02:55:47;17.10;81.10
56478;DHT22;42382;53.210;5.772;2023-07-13T02:58:13;17.10;81.30
56478;DHT22;42382;53.210;5.772;2023-07-13T03:00:43;17.10;81.40
56478;DHT22;42382;53.210;5.772;2023-07-13T03:03:09;17.10;81.20
56478;DHT22;42382;53.210;5.772;2023-07-13T03:05:36;17.00;81.70
56478;DHT22;42382;53.210;5.772;2023-07-13T03:08:02;17.00;81.70
56478;DHT22;42382;53.210;5.772;2023-07-13T03:10:29;17.00;81.80
56478;DHT22;42382;53.210;5.772;2023-07-13T03:12:55;17.00;81.80
56478;DHT22;42382;53.210;5.772;2023-07-13T03:15:20;16.90;81.80
56478;DHT22;42382;53.210;5.772;2023-07-13T03:17:46;16.90;81.80
56478;DHT22;42382;53.210;5.772;2023-07-13T03:20:12;16.90;81.80
56478;DHT22;42382;53.210;5.772;2023-07-13T03:22:38;16.90;82.20
56478;DHT22;42382;53.210;5.772;2023-07-13T03:25:04;16.90;82.20
56478;DHT22;42382;53.210;5.772;2023-07-13T03:27:30;16.90;82.10
56478;DHT22;42382;53.210;5.772;2023-07-13T03:29:57;16.90;82.30
56478;DHT22;42382;53.210;5.772;2023-07-13T03:32:22;16.80;82.40
56478;DHT22;42382;53.210;5.772;2023-07-13T03:34:48;16.80;82.40
56478;DHT22;42382;53.210;5.772;2023-07-13T03:37:14;16.80;82.70
56478;DHT22;42382;53.210;5.772;2023-07-13T03:39:39;16.80;82.80
56478;DHT22;42382;53.210;5.772;2023-07-13T03:42:06;16.70;82.70
56478;DHT22;42382;53.210;5.772;2023-07-13T03:44:31;16.80;83.10
56478;DHT22;42382;53.210;5.772;2023-07-13T03:46:57;16.80;82.90
56478;DHT22;42382;53.210;5.772;2023-07-13T03:49:23;16.80;82.90
56478;DHT22;42382;53.210;5.772;2023-07-13T03:51:51;16.80;83.10
56478;DHT22;42382;53.210;5.772;2023-07-13T03:54:17;16.80;83.30
56478;DHT22;42382;53.210;5.772;2023-07-13T03:56:43;16.70;83.20
56478;DHT22;42382;53.210;5.772;2023-07-13T03:59:08;16.70;83.20
56478;DHT22;42382;53.210;5.772;2023-07-13T04:01:34;16.70;83.40
56478;DHT22;42382;53.210;5.772;2023-07-13T04:04:00;16.70;84.00
56478;DHT22;42382;53.210;5.772;2023-07-13T04:06:28;16.70;83.60
56478;DHT22;42382;53.210;5.772;2023-07-13T04:08:57;16.70;83.60
56478;DHT22;42382;53.210;5.772;2023-07-13T04:11:25;16.70;83.90
56478;DHT22;42382;53.210;5.772;2023-07-13T04:13:51;16.70;83.90
56478;DHT22;42382;53.210;5.772;2023-07-13T04:16:18;16.70;83.70
56478;DHT22;42382;53.210;5.772;2023-07-13T04:18:45;16.70;83.90
56478;DHT22;42382;53.210;5.772;2023-07-13T04:21:11;16.80;83.90
56478;DHT22;42382;53.210;5.772;2023-07-13T04:23:38;16.70;84.10
56478;DHT22;42382;53.210;5.772;2023-07-13T04:26:03;16.70;83.90
56478;DHT22;42382;53.210;5.772;2023-07-13T04:28:30;16.70;83.80
56478;DHT22;42382;53.210;5.772;2023-07-13T04:30:56;16.80;83.80
56478;DHT22;42382;53.210;5.772;2023-07-13T04:33:22;16.80;83.90
56478;DHT22;42382;53.210;5.772;2023-07-13T04:35:49;16.80;83.90
56478;DHT22;42382;53.210;5.772;2023-07-13T04:38:15;16.80;83.90
56478;DHT22;42382;53.210;5.772;2023-07-13T04:40:44;16.80;83.90
56478;DHT22;42382;53.210;5.772;2023-07-13T04:43:10;16.90;83.80
56478;DHT22;42382;53.210;5.772;2023-07-13T04:45:36;16.90;83.70
56478;DHT22;42382;53.210;5.772;2023-07-13T04:48:02;16.90;83.70
56478;DHT22;42382;53.210;5.772;2023-07-13T04:50:28;16.90;83.60
56478;DHT22;42382;53.210;5.772;2023-07-13T04:52:54;16.90;83.60
56478;DHT22;42382;53.210;5.772;2023-07-13T04:55:20;16.90;83.40
56478;DHT22;42382;53.210;5.772;2023-07-13T04:57:47;16.90;83.40
56478;DHT22;42382;53.210;5.772;2023-07-13T05:00:13;16.90;83.40
56478;DHT22;42382;53.210;5.772;2023-07-13T05:02:44;17.00;83.40
56478;DHT22;42382;53.210;5.772;2023-07-13T05:05:09;17.00;83.30
56478;DHT22;42382;53.210;5.772;2023-07-13T05:07:35;17.00;83.20
56478;DHT22;42382;53.210;5.772;2023-07-13T05:10:01;17.00;83.20
56478;DHT22;42382;53.210;5.772;2023-07-13T05:12:28;17.00;83.30
56478;DHT22;42382;53.210;5.772;2023-07-13T05:14:54;17.00;83.20
56478;DHT22;42382;53.210;5.772;2023-07-13T05:17:19;17.00;83.00
56478;DHT22;42382;53.210;5.772;2023-07-13T05:19:45;17.00;83.30
56478;DHT22;42382;53.210;5.772;2023-07-13T05:22:11;17.10;83.20
56478;DHT22;42382;53.210;5.772;2023-07-13T05:24:37;17.10;83.10
56478;DHT22;42382;53.210;5.772;2023-07-13T05:27:02;17.10;83.00
56478;DHT22;42382;53.210;5.772;2023-07-13T05:29:28;17.10;82.90
56478;DHT22;42382;53.210;5.772;2023-07-13T05:31:54;17.20;82.70
56478;DHT22;42382;53.210;5.772;2023-07-13T05:34:19;17.20;82.70
56478;DHT22;42382;53.210;5.772;2023-07-13T05:36:45;17.30;82.60
56478;DHT22;42382;53.210;5.772;2023-07-13T05:39:11;17.30;82.50
56478;DHT22;42382;53.210;5.772;2023-07-13T05:41:37;17.40;82.40
56478;DHT22;42382;53.210;5.772;2023-07-13T05:44:03;17.40;82.40
56478;DHT22;42382;53.210;5.772;2023-07-13T05:46:32;17.40;82.30
56478;DHT22;42382;53.210;5.772;2023-07-13T05:48:57;17.50;82.20
56478;DHT22;42382;53.210;5.772;2023-07-13T05:51:23;17.60;81.80
56478;DHT22;42382;53.210;5.772;2023-07-13T05:53:49;17.60;81.00
56478;DHT22;42382;53.210;5.772;2023-07-13T05:56:14;17.60;80.80
56478;DHT22;42382;53.210;5.772;2023-07-13T05:58:40;17.70;80.60
56478;DHT22;42382;53.210;5.772;2023-07-13T06:01:11;17.70;79.80
56478;DHT22;42382;53.210;5.772;2023-07-13T06:03:37;17.80;79.50
56478;DHT22;42382;53.210;5.772;2023-07-13T06:06:05;17.80;78.90
56478;DHT22;42382;53.210;5.772;2023-07-13T06:08:31;17.80;76.20
56478;DHT22;42382;53.210;5.772;2023-07-13T06:11:26;17.80;76.60
56478;DHT22;42382;53.210;5.772;2023-07-13T06:13:51;17.90;76.30
56478;DHT22;42382;53.210;5.772;2023-07-13T06:16:18;17.90;76.40
56478;DHT22;42382;53.210;5.772;2023-07-13T06:18:44;18.00;75.80
56478;DHT22;42382;53.210;5.772;2023-07-13T06:21:15;18.00;75.20
56478;DHT22;42382;53.210;5.772;2023-07-13T06:23:41;18.00;74.90
56478;DHT22;42382;53.210;5.772;2023-07-13T06:26:07;18.10;75.10
56478;DHT22;42382;53.210;5.772;2023-07-13T06:28:34;18.10;74.50
56478;DHT22;42382;53.210;5.772;2023-07-13T06:31:00;18.10;73.10
56478;DHT22;42382;53.210;5.772;2023-07-13T06:33:26;18.20;73.50
56478;DHT22;42382;53.210;5.772;2023-07-13T06:35:52;18.20;73.80
56478;DHT22;42382;53.210;5.772;2023-07-13T06:38:17;18.30;73.70
56478;DHT22;42382;53.210;5.772;2023-07-13T06:40:43;18.30;73.40
56478;DHT22;42382;53.210;5.772;2023-07-13T06:43:09;18.40;72.60
56478;DHT22;42382;53.210;5.772;2023-07-13T06:45:46;18.40;73.00
56478;DHT22;42382;53.210;5.772;2023-07-13T06:48:18;18.40;71.80
56478;DHT22;42382;53.210;5.772;2023-07-13T06:50:44;18.50;71.90
56478;DHT22;42382;53.210;5.772;2023-07-13T06:53:10;18.60;72.50
56478;DHT22;42382;53.210;5.772;2023-07-13T06:55:36;18.70;72.50
56478;DHT22;42382;53.210;5.772;2023-07-13T06:58:02;18.90;71.90
56478;DHT22;42382;53.210;5.772;2023-07-13T07:00:28;19.10;71.10
56478;DHT22;42382;53.210;5.772;2023-07-13T07:02:54;19.30;71.30
56478;DHT22;42382;53.210;5.772;2023-07-13T07:05:20;20.10;70.50
56478;DHT22;42382;53.210;5.772;2023-07-13T07:07:48;21.10;68.60
56478;DHT22;42382;53.210;5.772;2023-07-13T07:10:14;22.10;66.20
56478;DHT22;42382;53.210;5.772;2023-07-13T07:12:40;22.90;62.40
56478;DHT22;42382;53.210;5.772;2023-07-13T07:15:06;23.30;58.70
56478;DHT22;42382;53.210;5.772;2023-07-13T07:17:32;23.50;57.30
56478;DHT22;42382;53.210;5.772;2023-07-13T07:19:57;23.80;54.40
56478;DHT22;42382;53.210;5.772;2023-07-13T07:22:23;23.90;55.10
56478;DHT22;42382;53.210;5.772;2023-07-13T07:24:53;23.60;55.30
56478;DHT22;42382;53.210;5.772;2023-07-13T07:27:18;23.10;56.10
56478;DHT22;42382;53.210;5.772;2023-07-13T07:29:44;22.70;57.60
56478;DHT22;42382;53.210;5.772;2023-07-13T07:32:10;22.50;57.30
56478;DHT22;42382;53.210;5.772;2023-07-13T07:34:36;22.40;57.60
56478;DHT22;42382;53.210;5.772;2023-07-13T07:37:02;22.70;57.10
56478;DHT22;42382;53.210;5.772;2023-07-13T07:39:28;22.80;56.30
56478;DHT22;42382;53.210;5.772;2023-07-13T07:41:54;22.70;57.40
56478;DHT22;42382;53.210;5.772;2023-07-13T07:44:19;22.50;57.90
56478;DHT22;42382;53.210;5.772;2023-07-13T07:46:45;22.60;57.80
56478;DHT22;42382;53.210;5.772;2023-07-13T07:49:11;22.60;58.30
56478;DHT22;42382;53.210;5.772;2023-07-13T07:51:37;23.00;58.70
56478;DHT22;42382;53.210;5.772;2023-07-13T07:54:04;23.00;58.20
56478;DHT22;42382;53.210;5.772;2023-07-13T07:56:29;23.30;58.00
56478;DHT22;42382;53.210;5.772;2023-07-13T07:58:55;23.20;58.20
56478;DHT22;42382;53.210;5.772;2023-07-13T08:01:21;23.40;57.40
56478;DHT22;42382;53.210;5.772;2023-07-13T08:03:47;24.20;56.40
56478;DHT22;42382;53.210;5.772;2023-07-13T08:06:16;24.70;53.70
56478;DHT22;42382;53.210;5.772;2023-07-13T08:08:42;25.20;52.00
56478;DHT22;42382;53.210;5.772;2023-07-13T08:11:08;25.50;51.80
56478;DHT22;42382;53.210;5.772;2023-07-13T08:13:35;25.10;51.50
56478;DHT22;42382;53.210;5.772;2023-07-13T08:16:00;24.80;52.70
56478;DHT22;42382;53.210;5.772;2023-07-13T08:18:26;25.20;52.80
56478;DHT22;42382;53.210;5.772;2023-07-13T08:20:53;25.40;51.40
56478;DHT22;42382;53.210;5.772;2023-07-13T08:23:22;25.60;47.70
56478;DHT22;42382;53.210;5.772;2023-07-13T08:25:52;25.50;48.90
56478;DHT22;42382;53.210;5.772;2023-07-13T08:28:20;25.80;49.00
56478;DHT22;42382;53.210;5.772;2023-07-13T08:30:46;26.00;48.40
56478;DHT22;42382;53.210;5.772;2023-07-13T08:33:23;25.90;48.30
56478;DHT22;42382;53.210;5.772;2023-07-13T08:35:51;26.00;46.80
56478;DHT22;42382;53.210;5.772;2023-07-13T08:38:18;25.80;48.70
56478;DHT22;42382;53.210;5.772;2023-07-13T08:40:45;26.10;49.50
56478;DHT22;42382;53.210;5.772;2023-07-13T08:43:16;26.30;48.10
56478;DHT22;42382;53.210;5.772;2023-07-13T08:45:47;26.00;47.10
56478;DHT22;42382;53.210;5.772;2023-07-13T08:48:29;25.90;47.10
56478;DHT22;42382;53.210;5.772;2023-07-13T08:53:49;25.90;46.30
56478;DHT22;42382;53.210;5.772;2023-07-13T08:56:24;25.80;48.00
56478;DHT22;42382;53.210;5.772;2023-07-13T08:58:56;25.40;46.20
56478;DHT22;42382;53.210;5.772;2023-07-13T09:01:30;25.40;48.10
56478;DHT22;42382;53.210;5.772;2023-07-13T09:04:06;25.40;47.60
56478;DHT22;42382;53.210;5.772;2023-07-13T09:07:26;25.50;45.30
56478;DHT22;42382;53.210;5.772;2023-07-13T09:15:04;25.40;48.90
56478;DHT22;42382;53.210;5.772;2023-07-13T09:17:37;26.00;48.80
56478;DHT22;42382;53.210;5.772;2023-07-13T09:22:43;25.90;45.60
56478;DHT22;42382;53.210;5.772;2023-07-13T09:27:53;26.00;44.40
56478;DHT22;42382;53.210;5.772;2023-07-13T09:30:32;26.30;45.10
56478;DHT22;42382;53.210;5.772;2023-07-13T09:32:59;26.30;44.10
56478;DHT22;42382;53.210;5.772;2023-07-13T09:35:27;26.20;44.30
56478;DHT22;42382;53.210;5.772;2023-07-13T09:37:58;26.20;43.90
56478;DHT22;42382;53.210;5.772;2023-07-13T09:40:39;26.00;44.20
56478;DHT22;42382;53.210;5.772;2023-07-13T09:43:08;25.80;44.50
56478;DHT22;42382;53.210;5.772;2023-07-13T09:45:36;25.70;44.90
56478;DHT22;42382;53.210;5.772;2023-07-13T09:48:11;25.60;45.40
56478;DHT22;42382;53.210;5.772;2023-07-13T09:50:39;25.70;45.30
56478;DHT22;42382;53.210;5.772;2023-07-13T09:53:12;25.60;45.40
56478;DHT22;42382;53.210;5.772;2023-07-13T09:55:39;25.80;46.70
56478;DHT22;42382;53.210;5.772;2023-07-13T10:00:35;25.90;46.50
56478;DHT22;42382;53.210;5.772;2023-07-13T10:03:04;25.80;46.60
56478;DHT22;42382;53.210;5.772;2023-07-13T10:05:44;25.60;46.60
56478;DHT22;42382;53.210;5.772;2023-07-13T10:10:46;25.10;48.60
56478;DHT22;42382;53.210;5.772;2023-07-13T10:15:51;24.30;49.40
56478;DHT22;42382;53.210;5.772;2023-07-13T10:18:17;24.00;50.60
56478;DHT22;42382;53.210;5.772;2023-07-13T10:20:44;23.80;50.40
56478;DHT22;42382;53.210;5.772;2023-07-13T10:23:15;23.60;50.30
56478;DHT22;42382;53.210;5.772;2023-07-13T10:25:46;23.60;51.00
56478;DHT22;42382;53.210;5.772;2023-07-13T10:28:35;24.00;50.80
56478;DHT22;42382;53.210;5.772;2023-07-13T10:31:02;24.30;50.10
56478;DHT22;42382;53.210;5.772;2023-07-13T10:33:30;24.40;49.90
56478;DHT22;42382;53.210;5.772;2023-07-13T10:38:40;24.10;48.10
56478;DHT22;42382;53.210;5.772;2023-07-13T10:41:11;24.00;50.30
56478;DHT22;42382;53.210;5.772;2023-07-13T10:43:43;24.20;50.30
56478;DHT22;42382;53.210;5.772;2023-07-13T10:46:12;24.30;48.80
56478;DHT22;42382;53.210;5.772;2023-07-13T10:48:41;24.20;48.90
56478;DHT22;42382;53.210;5.772;2023-07-13T10:51:09;24.30;49.60
56478;DHT22;42382;53.210;5.772;2023-07-13T10:53:37;24.50;49.60
56478;DHT22;42382;53.210;5.772;2023-07-13T10:58:42;24.40;49.10
56478;DHT22;42382;53.210;5.772;2023-07-13T11:03:49;24.80;48.40
56478;DHT22;42382;53.210;5.772;2023-07-13T11:06:37;24.90;47.30
56478;DHT22;42382;53.210;5.772;2023-07-13T11:11:56;24.80;47.40
56478;DHT22;42382;53.210;5.772;2023-07-13T11:14:41;24.90;47.50
56478;DHT22;42382;53.210;5.772;2023-07-13T11:25:26;25.00;46.50
56478;DHT22;42382;53.210;5.772;2023-07-13T11:36:16;24.80;48.00
56478;DHT22;42382;53.210;5.772;2023-07-13T11:39:05;24.90;46.70
56478;DHT22;42382;53.210;5.772;2023-07-13T11:41:37;25.00;48.20
56478;DHT22;42382;53.210;5.772;2023-07-13T11:44:23;25.00;48.20
56478;DHT22;42382;53.210;5.772;2023-07-13T11:46:54;24.90;47.30
56478;DHT22;42382;53.210;5.772;2023-07-13T11:49:22;24.80;48.80
56478;DHT22;42382;53.210;5.772;2023-07-13T11:51:48;25.00;49.60
56478;DHT22;42382;53.210;5.772;2023-07-13T11:54:31;25.20;48.60
56478;DHT22;42382;53.210;5.772;2023-07-13T11:57:01;25.40;48.30
56478;DHT22;42382;53.210;5.772;2023-07-13T11:59:29;25.20;48.60
56478;DHT22;42382;53.210;5.772;2023-07-13T12:01:55;25.00;49.20
56478;DHT22;42382;53.210;5.772;2023-07-13T12:04:28;25.10;49.70
56478;DHT22;42382;53.210;5.772;2023-07-13T12:06:56;24.90;49.30
56478;DHT22;42382;53.210;5.772;2023-07-13T12:09:26;24.40;51.20
56478;DHT22;42382;53.210;5.772;2023-07-13T12:11:53;24.40;51.90
56478;DHT22;42382;53.210;5.772;2023-07-13T12:14:19;24.50;52.20
56478;DHT22;42382;53.210;5.772;2023-07-13T12:17:04;24.40;52.40
56478;DHT22;42382;53.210;5.772;2023-07-13T12:19:32;24.40;52.30
56478;DHT22;42382;53.210;5.772;2023-07-13T12:21:58;24.30;52.80
56478;DHT22;42382;53.210;5.772;2023-07-13T12:24:25;24.30;53.10
56478;DHT22;42382;53.210;5.772;2023-07-13T12:27:00;24.30;52.70
56478;DHT22;42382;53.210;5.772;2023-07-13T12:29:26;24.30;51.70
56478;DHT22;42382;53.210;5.772;2023-07-13T12:31:52;24.20;52.30
56478;DHT22;42382;53.210;5.772;2023-07-13T12:34:20;24.10;52.70
56478;DHT22;42382;53.210;5.772;2023-07-13T12:36:49;23.90;53.50
56478;DHT22;42382;53.210;5.772;2023-07-13T12:39:28;23.60;54.40
56478;DHT22;42382;53.210;5.772;2023-07-13T12:42:27;23.40;55.10
56478;DHT22;42382;53.210;5.772;2023-07-13T12:45:03;23.10;54.70
56478;DHT22;42382;53.210;5.772;2023-07-13T12:47:30;22.90;55.80
56478;DHT22;42382;53.210;5.772;2023-07-13T12:49:59;22.80;56.50
56478;DHT22;42382;53.210;5.772;2023-07-13T12:52:32;22.80;56.80
56478;DHT22;42382;53.210;5.772;2023-07-13T12:55:20;22.40;56.70
56478;DHT22;42382;53.210;5.772;2023-07-13T12:57:57;22.30;57.80
56478;DHT22;42382;53.210;5.772;2023-07-13T13:00:37;22.30;57.80
56478;DHT22;42382;53.210;5.772;2023-07-13T13:06:00;22.20;59.10
56478;DHT22;42382;53.210;5.772;2023-07-13T13:08:29;22.20;58.20
56478;DHT22;42382;53.210;5.772;2023-07-13T13:10:55;21.90;58.90
56478;DHT22;42382;53.210;5.772;2023-07-13T13:13:20;21.90;59.40
56478;DHT22;42382;53.210;5.772;2023-07-13T13:15:47;22.00;59.90
56478;DHT22;42382;53.210;5.772;2023-07-13T13:18:17;21.90;60.10
56478;DHT22;42382;53.210;5.772;2023-07-13T13:20:48;22.00;59.80
56478;DHT22;42382;53.210;5.772;2023-07-13T13:23:20;22.10;59.70
56478;DHT22;42382;53.210;5.772;2023-07-13T13:25:49;22.20;59.30
56478;DHT22;42382;53.210;5.772;2023-07-13T13:28:18;22.20;58.80
56478;DHT22;42382;53.210;5.772;2023-07-13T13:30:45;22.20;59.30
56478;DHT22;42382;53.210;5.772;2023-07-13T13:33:14;22.40;58.90
56478;DHT22;42382;53.210;5.772;2023-07-13T13:35:41;22.40;58.00
56478;DHT22;42382;53.210;5.772;2023-07-13T13:38:19;22.50;57.40
56478;DHT22;42382;53.210;5.772;2023-07-13T13:40:46;22.70;56.50
56478;DHT22;42382;53.210;5.772;2023-07-13T13:43:16;22.80;56.60
56478;DHT22;42382;53.210;5.772;2023-07-13T13:45:44;22.90;56.00
56478;DHT22;42382;53.210;5.772;2023-07-13T13:48:15;22.80;55.00
56478;DHT22;42382;53.210;5.772;2023-07-13T13:50:42;22.60;56.40
56478;DHT22;42382;53.210;5.772;2023-07-13T13:53:12;22.50;57.30
56478;DHT22;42382;53.210;5.772;2023-07-13T13:55:40;22.60;58.40
56478;DHT22;42382;53.210;5.772;2023-07-13T13:58:10;22.60;58.40
56478;DHT22;42382;53.210;5.772;2023-07-13T14:00:39;22.80;57.90
56478;DHT22;42382;53.210;5.772;2023-07-13T14:03:05;22.90;58.20
56478;DHT22;42382;53.210;5.772;2023-07-13T14:05:34;23.10;57.60
56478;DHT22;42382;53.210;5.772;2023-07-13T14:08:00;23.10;56.90
56478;DHT22;42382;53.210;5.772;2023-07-13T14:10:26;23.10;57.00
56478;DHT22;42382;53.210;5.772;2023-07-13T14:12:53;23.20;56.60
56478;DHT22;42382;53.210;5.772;2023-07-13T14:15:27;23.10;56.20
56478;DHT22;42382;53.210;5.772;2023-07-13T14:17:53;23.10;56.10
56478;DHT22;42382;53.210;5.772;2023-07-13T14:20:21;23.10;56.20
56478;DHT22;42382;53.210;5.772;2023-07-13T14:22:49;22.90;56.20
56478;DHT22;42382;53.210;5.772;2023-07-13T14:25:16;22.90;56.70
56478;DHT22;42382;53.210;5.772;2023-07-13T14:27:44;22.90;56.90
56478;DHT22;42382;53.210;5.772;2023-07-13T14:30:15;22.90;57.20
56478;DHT22;42382;53.210;5.772;2023-07-13T14:32:41;22.90;57.10
56478;DHT22;42382;53.210;5.772;2023-07-13T14:35:10;22.80;57.40
56478;DHT22;42382;53.210;5.772;2023-07-13T14:37:36;22.80;58.00
56478;DHT22;42382;53.210;5.772;2023-07-13T14:40:02;23.00;57.70
56478;DHT22;42382;53.210;5.772;2023-07-13T14:42:28;23.10;57.50
56478;DHT22;42382;53.210;5.772;2023-07-13T14:44:54;23.30;57.00
56478;DHT22;42382;53.210;5.772;2023-07-13T14:47:20;23.30;56.80
56478;DHT22;42382;53.210;5.772;2023-07-13T14:49:46;23.20;57.40
56478;DHT22;42382;53.210;5.772;2023-07-13T14:52:18;23.20;57.60
56478;DHT22;42382;53.210;5.772;2023-07-13T14:54:46;22.90;57.80
56478;DHT22;42382;53.210;5.772;2023-07-13T14:57:16;22.80;58.00
56478;DHT22;42382;53.210;5.772;2023-07-13T14:59:44;23.00;58.10
56478;DHT22;42382;53.210;5.772;2023-07-13T15:04:39;23.10;57.50
56478;DHT22;42382;53.210;5.772;2023-07-13T15:07:05;23.10;57.90
56478;DHT22;42382;53.210;5.772;2023-07-13T15:09:30;23.10;57.80
56478;DHT22;42382;53.210;5.772;2023-07-13T15:11:56;23.10;58.10
56478;DHT22;42382;53.210;5.772;2023-07-13T15:14:23;23.10;58.30
56478;DHT22;42382;53.210;5.772;2023-07-13T15:16:53;23.30;57.90
56478;DHT22;42382;53.210;5.772;2023-07-13T15:19:20;23.40;57.50
56478;DHT22;42382;53.210;5.772;2023-07-13T15:21:47;23.30;57.50
56478;DHT22;42382;53.210;5.772;2023-07-13T15:24:16;23.40;57.20
56478;DHT22;42382;53.210;5.772;2023-07-13T15:26:42;23.40;56.90
56478;DHT22;42382;53.210;5.772;2023-07-13T15:29:14;23.30;56.40
56478;DHT22;42382;53.210;5.772;2023-07-13T15:31:40;23.30;56.50
56478;DHT22;42382;53.210;5.772;2023-07-13T15:34:17;23.40;56.20
56478;DHT22;42382;53.210;5.772;2023-07-13T15:36:44;23.40;56.10
56478;DHT22;42382;53.210;5.772;2023-07-13T15:39:15;23.40;56.10
56478;DHT22;42382;53.210;5.772;2023-07-13T15:41:45;23.30;56.00
56478;DHT22;42382;53.210;5.772;2023-07-13T15:44:31;23.30;56.60
56478;DHT22;42382;53.210;5.772;2023-07-13T15:46:57;23.30;56.00
56478;DHT22;42382;53.210;5.772;2023-07-13T15:49:25;23.30;56.80
56478;DHT22;42382;53.210;5.772;2023-07-13T15:51:51;23.20;56.60
56478;DHT22;42382;53.210;5.772;2023-07-13T15:54:19;23.00;57.00
56478;DHT22;42382;53.210;5.772;2023-07-13T15:56:51;22.90;57.30
56478;DHT22;42382;53.210;5.772;2023-07-13T15:59:20;22.80;58.20
56478;DHT22;42382;53.210;5.772;2023-07-13T16:01:46;22.70;58.30
56478;DHT22;42382;53.210;5.772;2023-07-13T16:04:14;22.60;58.70
56478;DHT22;42382;53.210;5.772;2023-07-13T16:06:41;22.60;59.10
56478;DHT22;42382;53.210;5.772;2023-07-13T16:09:07;22.70;59.40
56478;DHT22;42382;53.210;5.772;2023-07-13T16:11:38;22.80;59.00
56478;DHT22;42382;53.210;5.772;2023-07-13T16:14:04;22.70;59.20
56478;DHT22;42382;53.210;5.772;2023-07-13T16:16:32;22.70;59.50
56478;DHT22;42382;53.210;5.772;2023-07-13T16:19:03;22.70;58.80
56478;DHT22;42382;53.210;5.772;2023-07-13T16:21:44;22.80;59.30
56478;DHT22;42382;53.210;5.772;2023-07-13T16:24:28;22.80;59.50
56478;DHT22;42382;53.210;5.772;2023-07-13T16:26:54;22.90;58.40
56478;DHT22;42382;53.210;5.772;2023-07-13T16:29:27;22.90;58.40
56478;DHT22;42382;53.210;5.772;2023-07-13T16:32:06;22.90;58.80
56478;DHT22;42382;53.210;5.772;2023-07-13T16:34:34;22.90;59.20
56478;DHT22;42382;53.210;5.772;2023-07-13T16:37:16;22.90;59.00